Terminal Aerodrome Forecast
Issued by NWS

Home | Current Version | Previous Version | Text Only | Print | Product List | Glossary On
Versions: 1 2 3 4 5 6 7 8 9 10 11 12 13 14 15
566
FTUS42 KMLB 181127
TAFSFB
TAF
KSFB 181127Z 1812/1912 VRB03KT P6SM BKN250
     FM181500 23006KT P6SM SCT035 BKN250
     FM181800 26007KT P6SM SCT035 BKN250
     FM182300 VRB05KT P6SM FEW045 BKN250=

USA.gov is the U.S. government's official web portal to all federal, state and local government web resources and services.